createdAt,value
2019-05-01T00:00:31.567Z,10.25
2019-05-01T00:01:48.030Z,10.23
2019-05-01T00:03:02.888Z,10.25
2019-05-01T00:04:13.064Z,10.28
2019-05-01T00:05:19.199Z,10.28
2019-05-01T00:06:28.244Z,10.27
2019-05-01T00:07:34.343Z,10.23
2019-05-01T00:08:38.883Z,10.29
2019-05-01T00:09:43.682Z,10.32
2019-05-01T00:10:48.221Z,10.33
2019-05-01T00:11:52.692Z,10.37
2019-05-01T00:12:58.858Z,10.36
2019-05-01T00:14:03.326Z,10.36
2019-05-01T00:15:08.154Z,10.34
2019-05-01T00:16:12.837Z,10.32
2019-05-01T00:17:18.084Z,10.40
2019-05-01T00:18:22.838Z,10.37
2019-05-01T00:19:27.322Z,10.35
2019-05-01T00:20:31.814Z,10.33
2019-05-01T00:21:36.287Z,10.38
2019-05-01T00:22:41.114Z,10.40
2019-05-01T00:23:45.650Z,10.39
2019-05-01T00:24:50.314Z,10.38
2019-05-01T00:25:55.851Z,10.36
2019-05-01T00:27:00.323Z,10.36
2019-05-01T00:28:05.136Z,10.36
2019-05-01T00:29:09.679Z,10.37
2019-05-01T00:30:28.811Z,10.38
2019-05-01T00:31:22.750Z,10.35
2019-05-01T00:32:27.287Z,10.36
2019-05-01T00:33:32.725Z,10.35
2019-05-01T00:34:37.199Z,10.36
2019-05-01T00:35:41.691Z,10.37
2019-05-01T00:36:46.228Z,10.36
2019-05-01T00:37:51.878Z,10.37
2019-05-01T00:38:56.344Z,10.39
2019-05-01T00:40:01.136Z,10.40
2019-05-01T00:41:06.323Z,10.41
2019-05-01T00:42:11.143Z,10.38
2019-05-01T00:43:15.918Z,10.40
2019-05-01T00:44:20.401Z,10.46
2019-05-01T00:45:25.406Z,10.31
2019-05-01T00:46:29.929Z,10.31
2019-05-01T00:47:34.364Z,10.36
2019-05-01T00:48:38.909Z,10.41
2019-05-01T00:49:43.388Z,10.40
2019-05-01T00:50:48.571Z,10.40
2019-05-01T00:51:53.041Z,10.39
2019-05-01T00:52:57.507Z,10.40
2019-05-01T00:54:02.316Z,10.40
2019-05-01T00:55:25.266Z,10.39
2019-05-01T00:56:40.162Z,10.38
2019-05-01T00:57:49.259Z,10.38
2019-05-01T00:59:13.610Z,10.40
2019-05-01T01:00:29.042Z,10.40
2019-05-01T01:01:44.047Z,10.39
2019-05-01T01:02:48.996Z,10.39
2019-05-01T01:03:53.457Z,10.43
2019-05-01T01:04:57.927Z,10.42
2019-05-01T01:06:03.526Z,10.39
2019-05-01T01:07:08.268Z,10.34
2019-05-01T01:08:12.749Z,10.36
2019-05-01T01:09:17.982Z,10.38
2019-05-01T01:10:22.484Z,10.37
2019-05-01T01:11:26.993Z,10.36
2019-05-01T01:12:31.609Z,10.39
2019-05-01T01:13:36.084Z,10.40
2019-05-01T01:14:40.559Z,10.42
2019-05-01T01:15:45.368Z,10.45
2019-05-01T01:16:50.183Z,10.45
2019-05-01T01:17:54.979Z,10.46
2019-05-01T01:18:59.453Z,10.46
2019-05-01T01:20:04.464Z,10.49
2019-05-01T01:21:09.096Z,10.47
2019-05-01T01:22:13.560Z,10.46
2019-05-01T01:23:18.965Z,10.45
2019-05-01T01:24:23.675Z,10.46
2019-05-01T01:25:28.142Z,10.48
2019-05-01T01:26:32.949Z,10.45
2019-05-01T01:27:38.176Z,10.41
2019-05-01T01:28:42.997Z,10.36
2019-05-01T01:29:48.611Z,10.34
2019-05-01T01:30:56.566Z,10.34
2019-05-01T01:31:59.342Z,10.31
2019-05-01T01:33:04.090Z,10.23
2019-05-01T01:34:08.936Z,10.24
2019-05-01T01:35:13.774Z,10.25
2019-05-01T01:36:18.264Z,10.24
2019-05-01T01:37:22.732Z,10.16
2019-05-01T01:38:27.212Z,10.22
2019-05-01T01:39:32.016Z,10.21
2019-05-01T01:40:36.856Z,10.21
2019-05-01T01:41:44.102Z,10.22
2019-05-01T01:42:50.474Z,10.22
2019-05-01T01:43:56.923Z,10.22
2019-05-01T01:45:09.564Z,10.23
2019-05-01T01:46:24.791Z,10.22
2019-05-01T01:47:29.453Z,10.17
2019-05-01T01:48:33.961Z,10.22
2019-05-01T01:49:38.602Z,10.20
2019-05-01T01:50:45.871Z,10.21
2019-05-01T01:51:51.210Z,10.20
2019-05-01T01:52:55.761Z,10.19
2019-05-01T01:54:00.774Z,10.22
2019-05-01T01:55:06.286Z,10.22
2019-05-01T01:56:10.895Z,10.16
2019-05-01T01:57:15.826Z,10.15
2019-05-01T01:58:21.701Z,10.18
2019-05-01T01:59:27.005Z,10.17
2019-05-01T02:00:34.268Z,10.18
2019-05-01T02:01:43.257Z,10.16
2019-05-01T02:02:49.431Z,10.17
2019-05-01T02:04:04.088Z,10.18
2019-05-01T02:05:13.200Z,10.21
2019-05-01T02:06:17.807Z,10.18
2019-05-01T02:07:22.989Z,10.16
2019-05-01T02:08:27.812Z,10.14
2019-05-01T02:09:32.299Z,10.17
2019-05-01T02:10:43.056Z,10.20
2019-05-01T02:11:45.523Z,10.21
2019-05-01T02:12:50.414Z,10.24
2019-05-01T02:13:56.497Z,10.22
2019-05-01T02:15:00.965Z,10.18
2019-05-01T02:16:05.507Z,10.18
2019-05-01T02:17:10.469Z,10.17
2019-05-01T02:18:14.933Z,10.18
2019-05-01T02:19:20.469Z,10.17
2019-05-01T02:20:25.329Z,10.18
2019-05-01T02:21:29.803Z,10.14
2019-05-01T02:22:34.357Z,10.09
2019-05-01T02:23:38.982Z,10.13
2019-05-01T02:24:43.789Z,10.15
2019-05-01T02:25:48.260Z,10.13
2019-05-01T02:26:54.858Z,10.10
2019-05-01T02:28:17.641Z,10.13
2019-05-01T02:29:27.443Z,10.17
2019-05-01T02:30:32.057Z,10.19
2019-05-01T02:31:38.909Z,10.20
2019-05-01T02:32:46.101Z,10.21
2019-05-01T02:33:53.110Z,10.21
2019-05-01T02:35:00.481Z,10.21
2019-05-01T02:36:06.189Z,10.24
2019-05-01T02:37:13.322Z,10.27
2019-05-01T02:38:18.265Z,10.28
2019-05-01T02:39:23.639Z,10.23
2019-05-01T02:40:51.917Z,10.27
2019-05-01T02:41:59.490Z,10.26
2019-05-01T02:43:04.933Z,10.25
2019-05-01T02:44:12.522Z,10.26
2019-05-01T02:45:17.928Z,10.29
2019-05-01T02:46:25.197Z,10.34
2019-05-01T02:47:32.723Z,10.36
2019-05-01T02:48:40.413Z,10.31
2019-05-01T02:49:53.529Z,10.33
2019-05-01T02:51:01.384Z,10.36
2019-05-01T02:52:08.332Z,10.36
2019-05-01T02:53:12.959Z,10.36
2019-05-01T02:54:20.772Z,10.35
2019-05-01T02:55:36.670Z,10.36
2019-05-01T02:56:44.215Z,10.35
2019-05-01T02:57:49.354Z,10.34
2019-05-01T02:58:56.867Z,10.35
2019-05-01T03:00:01.688Z,10.35
2019-05-01T03:01:06.216Z,10.33
2019-05-01T03:02:11.284Z,10.33
2019-05-01T03:03:17.332Z,10.35
2019-05-01T03:04:22.344Z,10.32
2019-05-01T03:05:26.869Z,10.31
2019-05-01T03:06:32.395Z,10.35
2019-05-01T03:07:40.810Z,10.38
2019-05-01T03:08:45.685Z,10.40
2019-05-01T03:09:50.893Z,10.43
2019-05-01T03:10:55.356Z,10.43
2019-05-01T03:12:00.679Z,10.40
2019-05-01T03:13:05.830Z,10.40
2019-05-01T03:14:13.377Z,10.44
2019-05-01T03:15:20.119Z,10.44
2019-05-01T03:16:26.233Z,10.43
2019-05-01T03:17:49.085Z,10.45
2019-05-01T03:18:55.581Z,10.48
2019-05-01T03:20:02.230Z,10.49
2019-05-01T03:21:08.493Z,10.45
2019-05-01T03:22:14.673Z,10.49
2019-05-01T03:23:21.257Z,10.47
2019-05-01T03:24:27.915Z,10.49
2019-05-01T03:25:32.741Z,10.52
2019-05-01T03:26:38.681Z,10.51
2019-05-01T03:27:44.204Z,10.57
2019-05-01T03:28:49.367Z,10.56
2019-05-01T03:29:53.884Z,10.54
2019-05-01T03:30:58.626Z,10.58
2019-05-01T03:32:16.860Z,10.61
2019-05-01T03:33:09.291Z,10.58
2019-05-01T03:34:14.216Z,10.58
2019-05-01T03:35:18.936Z,10.56
2019-05-01T03:36:23.959Z,10.56
2019-05-01T03:37:29.068Z,10.56
2019-05-01T03:38:34.615Z,10.56
2019-05-01T03:39:39.717Z,10.52
2019-05-01T03:40:44.259Z,10.56
2019-05-01T03:41:49.438Z,10.60
2019-05-01T03:42:53.978Z,10.57
2019-05-01T03:43:59.395Z,10.57
2019-05-01T03:45:05.505Z,10.56
2019-05-01T03:46:10.479Z,10.55
2019-05-01T03:47:15.121Z,10.56
2019-05-01T03:48:19.903Z,10.58
2019-05-01T03:49:25.109Z,10.59
2019-05-01T03:50:29.580Z,10.62
2019-05-01T03:51:34.055Z,10.57
2019-05-01T03:52:38.586Z,10.65
2019-05-01T03:53:43.695Z,10.67
2019-05-01T03:54:49.595Z,10.67
2019-05-01T03:55:54.864Z,10.69
2019-05-01T03:56:59.990Z,10.72
2019-05-01T03:58:05.397Z,10.74
2019-05-01T03:59:10.220Z,10.72
2019-05-01T04:00:31.948Z,10.72
2019-05-01T04:01:38.350Z,10.77
2019-05-01T04:02:48.772Z,10.71
2019-05-01T04:03:59.018Z,10.72
2019-05-01T04:05:04.325Z,10.76
2019-05-01T04:06:08.816Z,10.77
2019-05-01T04:07:13.332Z,10.76
2019-05-01T04:08:18.448Z,10.77
2019-05-01T04:09:22.935Z,10.79
2019-05-01T04:10:27.642Z,10.81
2019-05-01T04:11:32.254Z,10.80
2019-05-01T04:12:37.264Z,10.79
2019-05-01T04:13:41.940Z,10.78
2019-05-01T04:14:46.548Z,10.82
2019-05-01T04:15:52.703Z,10.83
2019-05-01T04:16:59.494Z,10.84
2019-05-01T04:18:05.867Z,10.89
2019-05-01T04:19:11.135Z,10.87
2019-05-01T04:20:15.738Z,10.90
2019-05-01T04:21:22.076Z,10.92
2019-05-01T04:22:26.884Z,10.94
2019-05-01T04:23:31.726Z,10.95
2019-05-01T04:24:37.081Z,10.92
2019-05-01T04:25:41.912Z,10.90
2019-05-01T04:26:46.394Z,10.93
2019-05-01T04:27:53.558Z,10.95
2019-05-01T04:29:15.496Z,10.96
2019-05-01T04:30:38.122Z,10.97
2019-05-01T04:31:44.503Z,11.02
2019-05-01T04:32:52.996Z,11.01
2019-05-01T04:33:58.287Z,11.03
2019-05-01T04:35:20.605Z,11.09
2019-05-01T04:36:33.209Z,11.11
2019-05-01T04:37:38.279Z,11.14
2019-05-01T04:38:42.870Z,11.15
2019-05-01T04:39:47.833Z,11.16
2019-05-01T04:40:52.364Z,11.20
2019-05-01T04:41:57.008Z,11.21
2019-05-01T04:43:01.716Z,11.25
2019-05-01T04:44:06.562Z,11.28
2019-05-01T04:45:11.530Z,11.29
2019-05-01T04:46:16.133Z,11.25
2019-05-01T04:47:20.671Z,11.32
2019-05-01T04:48:25.379Z,11.31
2019-05-01T04:49:30.033Z,11.29
2019-05-01T04:50:36.420Z,11.24
2019-05-01T04:51:41.028Z,11.28
2019-05-01T04:52:45.931Z,11.32
2019-05-01T04:53:52.029Z,11.34
2019-05-01T04:54:56.592Z,11.37
2019-05-01T04:56:01.531Z,11.35
2019-05-01T04:57:06.025Z,11.33
2019-05-01T04:58:10.954Z,11.38
2019-05-01T04:59:15.884Z,11.32
2019-05-01T05:00:20.448Z,11.38
2019-05-01T05:01:28.336Z,11.36
2019-05-01T05:02:40.576Z,11.38
2019-05-01T05:03:46.989Z,11.35
2019-05-01T05:04:51.475Z,11.40
2019-05-01T05:05:56.286Z,11.42
2019-05-01T05:07:01.804Z,11.40
2019-05-01T05:08:06.336Z,11.43
2019-05-01T05:09:11.136Z,11.51
2019-05-01T05:10:16.058Z,11.51
2019-05-01T05:11:28.900Z,11.55
2019-05-01T05:12:44.595Z,11.61
2019-05-01T05:14:09.083Z,11.60
2019-05-01T05:15:21.494Z,11.59
2019-05-01T05:16:44.409Z,11.68
2019-05-01T05:17:49.242Z,11.64
2019-05-01T05:18:53.782Z,11.70
2019-05-01T05:19:58.541Z,11.73
2019-05-01T05:21:03.288Z,11.82
2019-05-01T05:22:08.095Z,11.72
2019-05-01T05:23:12.931Z,11.74
2019-05-01T05:24:17.872Z,11.83
2019-05-01T05:25:23.227Z,11.83
2019-05-01T05:26:28.239Z,11.75
2019-05-01T05:27:34.442Z,11.86
2019-05-01T05:28:39.583Z,11.83
2019-05-01T05:29:45.316Z,11.76
2019-05-01T05:30:52.078Z,11.81
2019-05-01T05:31:59.601Z,11.87
2019-05-01T05:33:17.779Z,11.87
2019-05-01T05:34:14.639Z,12.00
2019-05-01T05:35:22.107Z,11.90
2019-05-01T05:36:28.253Z,12.17
2019-05-01T05:37:37.028Z,12.36
2019-05-01T05:38:50.456Z,12.34
2019-05-01T05:39:58.159Z,12.48
2019-05-01T05:41:04.402Z,12.53
2019-05-01T05:42:10.440Z,12.55
2019-05-01T05:43:15.359Z,12.78
2019-05-01T05:44:20.178Z,13.05
2019-05-01T05:45:24.940Z,13.26
2019-05-01T05:46:30.129Z,13.32
2019-05-01T05:47:35.345Z,13.27
2019-05-01T05:48:41.328Z,13.34
2019-05-01T05:49:46.530Z,13.58
2019-05-01T05:51:11.117Z,13.75
2019-05-01T05:52:34.842Z,14.10
2019-05-01T05:53:41.991Z,14.04
2019-05-01T05:54:54.401Z,13.94
2019-05-01T05:56:11.895Z,13.99
2019-05-01T05:57:20.574Z,13.94
2019-05-01T05:58:27.481Z,13.86
2019-05-01T05:59:38.434Z,14.12
2019-05-01T06:00:58.077Z,13.89
2019-05-01T06:02:07.115Z,13.96
2019-05-01T06:03:35.013Z,13.71
2019-05-01T06:04:59.961Z,13.76
2019-05-01T06:06:08.354Z,13.85
2019-05-01T06:07:17.005Z,13.77
2019-05-01T06:08:25.903Z,13.69
2019-05-01T06:09:35.536Z,13.47
2019-05-01T06:10:43.207Z,13.50
2019-05-01T06:11:52.381Z,13.69
2019-05-01T06:13:21.903Z,13.72
2019-05-01T06:14:45.565Z,13.56
2019-05-01T06:15:54.459Z,13.40
2019-05-01T06:17:03.360Z,13.26
2019-05-01T06:18:09.543Z,13.01
2019-05-01T06:19:32.387Z,12.84
2019-05-01T06:20:44.811Z,12.89
2019-05-01T06:22:11.672Z,12.58
2019-05-01T06:23:23.211Z,12.53
2019-05-01T06:24:29.390Z,12.62
2019-05-01T06:25:38.176Z,12.93
2019-05-01T06:26:43.451Z,12.85
2019-05-01T06:27:49.321Z,12.80
2019-05-01T06:29:00.552Z,12.88
2019-05-01T06:30:02.183Z,12.93
2019-05-01T06:31:23.144Z,12.95
2019-05-01T06:32:24.270Z,12.83
2019-05-01T06:33:29.124Z,12.98
2019-05-01T06:34:33.664Z,12.83
2019-05-01T06:35:39.427Z,13.04
2019-05-01T06:36:48.939Z,12.88
2019-05-01T06:38:00.717Z,13.00
2019-05-01T06:39:11.737Z,13.07
2019-05-01T06:40:18.761Z,13.22
2019-05-01T06:41:22.052Z,12.98
2019-05-01T06:42:26.835Z,12.85
2019-05-01T06:43:38.933Z,12.88
2019-05-01T06:44:58.454Z,12.72
2019-05-01T06:46:13.717Z,12.77
2019-05-01T06:47:23.983Z,12.64
2019-05-01T06:48:33.224Z,12.76
2019-05-01T06:49:49.161Z,13.02
2019-05-01T06:50:55.277Z,13.16
2019-05-01T06:52:06.106Z,13.21
2019-05-01T06:53:10.642Z,13.42
2019-05-01T06:54:16.579Z,13.42
2019-05-01T06:55:22.450Z,13.75
2019-05-01T06:56:28.715Z,13.87
2019-05-01T06:57:33.586Z,13.56
2019-05-01T06:58:38.052Z,13.63
2019-05-01T06:59:43.562Z,13.37
2019-05-01T07:00:48.663Z,13.52
2019-05-01T07:01:58.363Z,13.63
2019-05-01T07:03:01.568Z,13.65
2019-05-01T07:04:06.963Z,13.53
2019-05-01T07:05:14.766Z,13.43
2019-05-01T07:06:18.978Z,13.14
2019-05-01T07:07:25.709Z,13.06
2019-05-01T07:08:34.326Z,12.67
2019-05-01T07:09:44.112Z,12.63
2019-05-01T07:10:49.385Z,12.51
2019-05-01T07:11:57.524Z,12.58
2019-05-01T07:13:06.465Z,12.59
2019-05-01T07:14:16.111Z,12.63
2019-05-01T07:15:21.816Z,12.45
2019-05-01T07:16:25.157Z,12.41
2019-05-01T07:17:32.385Z,12.44
2019-05-01T07:18:38.802Z,12.43
2019-05-01T07:20:03.082Z,12.31
2019-05-01T07:21:08.056Z,12.23
2019-05-01T07:22:17.218Z,12.31
2019-05-01T07:23:22.676Z,12.53
2019-05-01T07:24:29.149Z,12.52
2019-05-01T07:25:34.876Z,12.27
2019-05-01T07:26:43.972Z,12.56
2019-05-01T07:27:49.533Z,12.80
2019-05-01T07:29:01.422Z,13.03
2019-05-01T07:30:09.537Z,12.92
2019-05-01T07:31:18.743Z,13.22
2019-05-01T07:32:25.160Z,13.28
2019-05-01T07:33:33.590Z,13.54
2019-05-01T07:34:38.624Z,13.57
2019-05-01T07:35:43.787Z,13.45
2019-05-01T07:36:50.097Z,13.29
2019-05-01T07:37:57.536Z,13.40
2019-05-01T07:39:01.447Z,13.35
2019-05-01T07:40:08.232Z,13.46
2019-05-01T07:41:12.842Z,13.48
2019-05-01T07:42:31.374Z,13.20
2019-05-01T07:43:37.750Z,13.24
2019-05-01T07:44:46.473Z,13.18
2019-05-01T07:46:08.941Z,12.87
2019-05-01T07:47:15.412Z,12.85
2019-05-01T07:48:22.993Z,13.02
2019-05-01T07:49:39.020Z,13.09
2019-05-01T07:50:43.562Z,13.19
2019-05-01T07:51:52.295Z,13.31
2019-05-01T07:52:57.140Z,13.42
2019-05-01T07:54:04.011Z,13.65
2019-05-01T07:55:13.046Z,13.95
2019-05-01T07:56:17.259Z,14.03
2019-05-01T07:57:23.093Z,14.19
2019-05-01T07:58:29.446Z,14.31
2019-05-01T07:59:34.322Z,14.78
2019-05-01T08:00:54.911Z,14.92
2019-05-01T08:02:01.053Z,15.00
2019-05-01T08:03:07.294Z,14.80
2019-05-01T08:04:13.826Z,14.96
2019-05-01T08:05:17.966Z,14.85
2019-05-01T08:06:22.952Z,14.87
2019-05-01T08:07:27.911Z,14.88
2019-05-01T08:08:33.716Z,14.67
2019-05-01T08:09:38.188Z,14.57
2019-05-01T08:10:42.958Z,14.36
2019-05-01T08:11:47.819Z,14.29
2019-05-01T08:12:55.558Z,14.64
2019-05-01T08:14:07.365Z,14.62
2019-05-01T08:15:05.501Z,14.73
2019-05-01T08:16:09.983Z,14.77
2019-05-01T08:17:18.146Z,14.72
2019-05-01T08:18:27.859Z,14.78
2019-05-01T08:19:43.170Z,14.80
2019-05-01T08:20:50.414Z,14.95
2019-05-01T08:22:01.619Z,14.59
2019-05-01T08:23:07.599Z,14.85
2019-05-01T08:24:11.115Z,15.05
2019-05-01T08:25:16.160Z,15.07
2019-05-01T08:26:20.644Z,15.30
2019-05-01T08:27:29.660Z,15.36
2019-05-01T08:28:48.146Z,15.11
2019-05-01T08:30:03.483Z,14.89
2019-05-01T08:31:29.099Z,14.84
2019-05-01T08:32:38.938Z,14.78
2019-05-01T08:33:49.736Z,14.55
2019-05-01T08:34:59.902Z,14.60
2019-05-01T08:36:02.114Z,14.56
2019-05-01T08:37:06.876Z,14.34
2019-05-01T08:38:11.353Z,14.44
2019-05-01T08:39:16.164Z,14.88
2019-05-01T08:40:21.698Z,15.00
2019-05-01T08:41:27.168Z,14.74
2019-05-01T08:42:32.611Z,14.33
2019-05-01T08:43:37.787Z,14.49
2019-05-01T08:44:46.348Z,14.75
2019-05-01T08:45:58.606Z,14.80
2019-05-01T08:47:10.484Z,14.71
2019-05-01T08:48:20.012Z,14.61
2019-05-01T08:49:26.148Z,14.63
2019-05-01T08:50:30.611Z,14.60
2019-05-01T08:51:36.019Z,14.81
2019-05-01T08:52:42.624Z,15.08
2019-05-01T08:53:47.718Z,15.24
2019-05-01T08:54:54.726Z,15.44
2019-05-01T08:55:58.766Z,15.68
2019-05-01T08:57:03.538Z,15.50
2019-05-01T08:58:08.775Z,15.74
2019-05-01T08:59:14.478Z,15.44
2019-05-01T09:00:19.407Z,15.71
2019-05-01T09:01:24.215Z,15.47
2019-05-01T09:02:28.701Z,15.61
2019-05-01T09:03:33.171Z,15.88
2019-05-01T09:04:37.948Z,15.82
2019-05-01T09:05:42.772Z,15.97
2019-05-01T09:06:47.322Z,15.98
2019-05-01T09:07:55.987Z,15.77
2019-05-01T09:08:58.257Z,15.75
2019-05-01T09:10:02.759Z,15.72
2019-05-01T09:11:07.308Z,15.73
2019-05-01T09:12:13.555Z,15.68
2019-05-01T09:13:18.808Z,15.68
2019-05-01T09:14:24.377Z,15.76
2019-05-01T09:15:28.873Z,15.87
2019-05-01T09:16:33.411Z,15.94
2019-05-01T09:17:37.917Z,16.07
2019-05-01T09:18:42.761Z,16.70
2019-05-01T09:19:47.694Z,16.64
2019-05-01T09:20:53.824Z,16.74
2019-05-01T09:21:58.309Z,16.15
2019-05-01T09:23:02.786Z,16.46
2019-05-01T09:24:07.257Z,16.68
2019-05-01T09:25:13.449Z,16.56
2019-05-01T09:26:20.026Z,16.42
2019-05-01T09:27:29.288Z,16.52
2019-05-01T09:28:40.924Z,16.01
2019-05-01T09:29:53.177Z,16.32
2019-05-01T09:31:02.202Z,16.41
2019-05-01T09:32:10.285Z,16.48
2019-05-01T09:33:12.552Z,16.30
2019-05-01T09:34:19.208Z,16.22
2019-05-01T09:35:23.340Z,16.25
2019-05-01T09:36:27.827Z,16.59
2019-05-01T09:37:32.314Z,16.43
2019-05-01T09:38:36.860Z,16.56
2019-05-01T09:39:41.476Z,16.47
2019-05-01T09:40:45.964Z,16.06
2019-05-01T09:41:50.499Z,15.85
2019-05-01T09:42:59.318Z,15.56
2019-05-01T09:44:01.427Z,15.68
2019-05-01T09:45:07.067Z,16.03
2019-05-01T09:46:11.610Z,15.84
2019-05-01T09:47:16.752Z,16.13
2019-05-01T09:48:21.304Z,16.51
2019-05-01T09:49:25.852Z,15.88
2019-05-01T09:50:31.963Z,16.27
2019-05-01T09:51:47.459Z,16.91
2019-05-01T09:52:59.784Z,17.39
2019-05-01T09:54:09.779Z,17.26
2019-05-01T09:55:17.874Z,17.65
2019-05-01T09:56:24.858Z,17.58
2019-05-01T09:57:29.657Z,17.66
2019-05-01T09:58:34.441Z,17.76
2019-05-01T09:59:38.919Z,18.02
2019-05-01T10:00:43.684Z,17.73
2019-05-01T10:01:48.198Z,17.37
2019-05-01T10:02:54.696Z,17.64
2019-05-01T10:03:59.157Z,17.43
2019-05-01T10:05:06.684Z,17.35
2019-05-01T10:06:12.833Z,17.47
2019-05-01T10:07:18.911Z,17.47
2019-05-01T10:08:24.036Z,17.55
2019-05-01T10:09:28.822Z,17.86
2019-05-01T10:10:33.293Z,17.81
2019-05-01T10:11:40.767Z,17.96
2019-05-01T10:12:46.903Z,17.99
2019-05-01T10:13:53.664Z,18.01
2019-05-01T10:14:56.690Z,18.14
2019-05-01T10:16:01.166Z,17.15
2019-05-01T10:17:06.608Z,17.35
2019-05-01T10:18:11.088Z,17.69
2019-05-01T10:19:15.895Z,18.40
2019-05-01T10:20:20.337Z,18.12
2019-05-01T10:21:27.312Z,18.31
2019-05-01T10:22:32.967Z,18.36
2019-05-01T10:23:37.493Z,18.11
2019-05-01T10:24:41.979Z,18.41
2019-05-01T10:25:49.813Z,18.69
2019-05-01T10:27:00.074Z,18.93
2019-05-01T10:28:12.732Z,18.74
2019-05-01T10:29:33.784Z,18.74
2019-05-01T10:30:40.034Z,18.54
2019-05-01T10:31:58.274Z,18.30
2019-05-01T10:33:04.380Z,18.42
2019-05-01T10:34:26.739Z,17.96
2019-05-01T10:35:43.045Z,17.84
2019-05-01T10:36:49.759Z,17.65
2019-05-01T10:37:53.052Z,18.23
2019-05-01T10:38:57.520Z,18.32
2019-05-01T10:40:02.003Z,17.41
2019-05-01T10:41:10.451Z,17.57
2019-05-01T10:42:17.389Z,17.82
2019-05-01T10:43:22.746Z,17.63
2019-05-01T10:44:28.984Z,17.81
2019-05-01T10:45:33.435Z,17.53
2019-05-01T10:46:38.191Z,17.56
2019-05-01T10:47:42.680Z,17.53
2019-05-01T10:48:47.456Z,17.68
2019-05-01T10:49:52.230Z,18.32
2019-05-01T10:50:56.700Z,18.87
2019-05-01T10:52:13.138Z,18.96
2019-05-01T10:53:07.376Z,18.60
2019-05-01T10:54:11.868Z,17.86
2019-05-01T10:55:16.341Z,18.20
2019-05-01T10:56:21.113Z,18.83
2019-05-01T10:57:25.585Z,18.97
2019-05-01T10:58:30.376Z,18.76
2019-05-01T10:59:34.851Z,18.30
2019-05-01T11:00:41.591Z,18.73
2019-05-01T11:01:53.599Z,19.34
2019-05-01T11:02:58.699Z,19.37
2019-05-01T11:04:03.350Z,18.86
2019-05-01T11:05:08.817Z,18.51
2019-05-01T11:06:13.768Z,18.92
2019-05-01T11:07:18.525Z,19.25
2019-05-01T11:08:23.089Z,18.42
2019-05-01T11:09:27.913Z,18.91
2019-05-01T11:10:32.875Z,18.71
2019-05-01T11:11:37.825Z,19.11
2019-05-01T11:12:42.291Z,19.35
2019-05-01T11:13:47.129Z,19.53
2019-05-01T11:14:51.668Z,19.84
2019-05-01T11:15:56.157Z,19.96
2019-05-01T11:17:01.052Z,19.47
2019-05-01T11:18:05.568Z,19.14
2019-05-01T11:19:10.515Z,18.95
2019-05-01T11:20:15.238Z,18.96
2019-05-01T11:21:20.253Z,19.24
2019-05-01T11:22:25.377Z,19.89
2019-05-01T11:23:29.878Z,20.30
2019-05-01T11:24:35.979Z,20.03
2019-05-01T11:25:40.452Z,19.83
2019-05-01T11:26:45.064Z,19.54
2019-05-01T11:27:49.605Z,19.97
2019-05-01T11:28:54.418Z,19.67
2019-05-01T11:29:58.900Z,19.99
2019-05-01T11:31:05.877Z,20.35
2019-05-01T11:32:12.544Z,20.15
2019-05-01T11:33:18.858Z,20.05
2019-05-01T11:34:37.058Z,19.95
2019-05-01T11:35:49.674Z,19.78
2019-05-01T11:37:02.244Z,19.49
2019-05-01T11:38:14.067Z,19.32
2019-05-01T11:39:26.217Z,19.05
2019-05-01T11:40:32.622Z,18.78
2019-05-01T11:41:50.931Z,18.75
2019-05-01T11:42:55.485Z,18.48
2019-05-01T11:44:00.342Z,18.40
2019-05-01T11:45:07.872Z,18.87
2019-05-01T11:46:12.750Z,18.70
2019-05-01T11:47:17.517Z,18.97
2019-05-01T11:48:25.019Z,18.81
2019-05-01T11:49:28.191Z,18.97
2019-05-01T11:50:32.654Z,19.33
2019-05-01T11:51:37.126Z,19.58
2019-05-01T11:52:41.975Z,19.57
2019-05-01T11:53:46.483Z,19.29
2019-05-01T11:54:50.957Z,19.47
2019-05-01T11:55:55.427Z,19.11
2019-05-01T11:56:59.902Z,19.07
2019-05-01T11:58:04.443Z,18.75
2019-05-01T11:59:09.250Z,18.97
2019-05-01T12:00:16.121Z,18.91
2019-05-01T12:01:22.817Z,19.23
2019-05-01T12:02:27.595Z,19.12
2019-05-01T12:03:32.360Z,19.35
2019-05-01T12:04:37.208Z,19.55
2019-05-01T12:05:41.681Z,19.15
2019-05-01T12:06:46.472Z,19.40
2019-05-01T12:07:51.392Z,19.62
2019-05-01T12:08:55.887Z,19.86
2019-05-01T12:10:00.356Z,19.52
2019-05-01T12:11:06.439Z,19.67
2019-05-01T12:12:12.937Z,19.09
2019-05-01T12:13:17.749Z,18.89
2019-05-01T12:14:22.240Z,19.09
2019-05-01T12:15:26.719Z,18.91
2019-05-01T12:16:49.401Z,18.88
2019-05-01T12:17:54.841Z,19.03
2019-05-01T12:18:59.489Z,18.97
2019-05-01T12:20:05.902Z,19.33
2019-05-01T12:21:10.731Z,19.23
2019-05-01T12:22:16.386Z,18.95
2019-05-01T12:23:20.861Z,19.05
2019-05-01T12:24:25.354Z,19.58
2019-05-01T12:25:29.829Z,19.80
2019-05-01T12:26:34.457Z,19.65
2019-05-01T12:27:39.240Z,19.74
2019-05-01T12:28:43.718Z,19.83
2019-05-01T12:29:48.575Z,19.68
2019-05-01T12:30:54.116Z,19.65
2019-05-01T12:31:58.593Z,19.36
2019-05-01T12:33:03.067Z,19.36
2019-05-01T12:34:07.534Z,19.87
2019-05-01T12:35:12.175Z,20.00
2019-05-01T12:36:16.652Z,19.91
2019-05-01T12:37:37.486Z,20.16
2019-05-01T12:38:42.286Z,20.29
2019-05-01T12:39:47.213Z,19.74
2019-05-01T12:41:09.763Z,20.15
2019-05-01T12:42:15.887Z,20.03
2019-05-01T12:43:21.419Z,19.49
2019-05-01T12:44:26.291Z,19.42
2019-05-01T12:45:30.782Z,19.89
2019-05-01T12:46:42.752Z,20.25
2019-05-01T12:47:55.466Z,20.05
2019-05-01T12:49:00.288Z,19.58
2019-05-01T12:50:07.466Z,19.24
2019-05-01T12:51:12.013Z,18.89
2019-05-01T12:52:19.041Z,18.82
2019-05-01T12:53:25.279Z,18.63
2019-05-01T12:54:33.857Z,18.51
2019-05-01T12:55:56.733Z,18.78
2019-05-01T12:57:02.376Z,18.78
2019-05-01T12:58:07.135Z,18.73
2019-05-01T12:59:11.603Z,18.91
2019-05-01T13:00:18.779Z,19.12
2019-05-01T13:01:23.260Z,19.32
2019-05-01T13:02:27.715Z,19.16
2019-05-01T13:03:32.188Z,18.83
2019-05-01T13:04:37.347Z,18.83
2019-05-01T13:05:42.470Z,18.78
2019-05-01T13:06:49.769Z,18.74
2019-05-01T13:07:54.438Z,18.78
2019-05-01T13:08:58.907Z,18.93
2019-05-01T13:10:03.903Z,18.85
2019-05-01T13:11:08.395Z,19.01
2019-05-01T13:12:12.858Z,19.14
2019-05-01T13:13:17.654Z,19.49
2019-05-01T13:14:22.462Z,20.00
2019-05-01T13:15:26.952Z,20.33
2019-05-01T13:16:31.425Z,20.44
2019-05-01T13:17:35.896Z,20.62
2019-05-01T13:18:40.729Z,20.22
2019-05-01T13:19:45.211Z,19.58
2019-05-01T13:20:49.869Z,19.60
2019-05-01T13:21:54.335Z,19.80
2019-05-01T13:22:59.179Z,20.16
2019-05-01T13:24:03.662Z,20.67
2019-05-01T13:25:08.311Z,20.01
2019-05-01T13:26:14.512Z,19.90
2019-05-01T13:27:24.301Z,19.91
2019-05-01T13:28:45.356Z,19.80
2019-05-01T13:29:51.459Z,19.93
2019-05-01T13:31:00.400Z,19.98
2019-05-01T13:32:12.763Z,18.90
2019-05-01T13:33:17.254Z,19.48
2019-05-01T13:34:21.866Z,20.06
2019-05-01T13:35:26.340Z,19.97
2019-05-01T13:36:31.156Z,20.19
2019-05-01T13:37:35.695Z,20.31
2019-05-01T13:38:40.556Z,20.07
2019-05-01T13:39:45.027Z,19.94
2019-05-01T13:40:49.997Z,19.62
2019-05-01T13:41:54.483Z,19.26
2019-05-01T13:42:58.954Z,19.29
2019-05-01T13:44:03.496Z,20.11
2019-05-01T13:45:08.604Z,19.81
2019-05-01T13:46:13.160Z,19.25
2019-05-01T13:47:17.643Z,19.84
2019-05-01T13:48:22.109Z,19.86
2019-05-01T13:49:26.651Z,20.33
2019-05-01T13:50:31.123Z,20.26
2019-05-01T13:51:35.687Z,20.54
2019-05-01T13:52:40.520Z,21.02
2019-05-01T13:53:45.003Z,21.06
2019-05-01T13:54:49.769Z,20.97
2019-05-01T13:55:54.239Z,20.53
2019-05-01T13:56:59.106Z,20.23
2019-05-01T13:58:03.645Z,20.07
2019-05-01T13:59:10.730Z,20.30
2019-05-01T14:00:18.012Z,20.77
2019-05-01T14:01:22.554Z,20.91
2019-05-01T14:02:27.044Z,20.94
2019-05-01T14:03:31.516Z,20.89
2019-05-01T14:04:36.061Z,20.98
2019-05-01T14:05:40.840Z,20.08
2019-05-01T14:06:45.661Z,19.89
2019-05-01T14:07:50.136Z,20.23
2019-05-01T14:08:54.610Z,20.52
2019-05-01T14:09:59.088Z,21.16
2019-05-01T14:11:03.632Z,21.27
2019-05-01T14:12:08.125Z,20.97
2019-05-01T14:13:12.598Z,20.92
2019-05-01T14:14:17.334Z,20.79
2019-05-01T14:15:21.810Z,20.88
2019-05-01T14:16:26.285Z,20.89
2019-05-01T14:17:30.778Z,20.67
2019-05-01T14:18:35.601Z,20.95
2019-05-01T14:19:41.720Z,21.17
2019-05-01T14:20:50.650Z,21.31